sensor_id;sensor_type;location;lat;lon;timestamp;P1;durP1;ratioP1;P2;durP2;ratioP2
64401;SDS011;50724;42.376;23.768;2023-08-07T00:00:10;1.50;;;0.90;;
64401;SDS011;50724;42.376;23.768;2023-08-07T00:03:10;1.27;;;0.95;;
64401;SDS011;50724;42.376;23.768;2023-08-07T00:06:11;2.28;;;1.00;;
64401;SDS011;50724;42.376;23.768;2023-08-07T00:09:11;2.37;;;1.30;;
64401;SDS011;50724;42.376;23.768;2023-08-07T00:12:12;2.05;;;1.20;;
64401;SDS011;50724;42.376;23.768;2023-08-07T00:15:12;2.33;;;1.08;;
64401;SDS011;50724;42.376;23.768;2023-08-07T00:18:13;1.95;;;1.02;;
64401;SDS011;50724;42.376;23.768;2023-08-07T00:21:13;2.25;;;1.30;;
64401;SDS011;50724;42.376;23.768;2023-08-07T00:24:14;3.35;;;1.00;;
64401;SDS011;50724;42.376;23.768;2023-08-07T00:27:14;2.53;;;1.23;;
64401;SDS011;50724;42.376;23.768;2023-08-07T00:30:15;2.13;;;1.10;;
64401;SDS011;50724;42.376;23.768;2023-08-07T00:33:15;1.97;;;1.47;;
64401;SDS011;50724;42.376;23.768;2023-08-07T00:36:16;2.33;;;1.20;;
64401;SDS011;50724;42.376;23.768;2023-08-07T00:39:16;2.83;;;1.27;;
64401;SDS011;50724;42.376;23.768;2023-08-07T00:42:17;1.65;;;0.98;;
64401;SDS011;50724;42.376;23.768;2023-08-07T00:45:17;2.13;;;1.20;;
64401;SDS011;50724;42.376;23.768;2023-08-07T00:48:17;3.20;;;1.20;;
64401;SDS011;50724;42.376;23.768;2023-08-07T00:51:18;3.13;;;1.20;;
64401;SDS011;50724;42.376;23.768;2023-08-07T00:54:20;2.85;;;1.50;;
64401;SDS011;50724;42.376;23.768;2023-08-07T00:57:20;3.00;;;1.50;;
64401;SDS011;50724;42.376;23.768;2023-08-07T01:00:25;2.40;;;1.38;;
64401;SDS011;50724;42.376;23.768;2023-08-07T01:03:27;2.78;;;1.60;;
64401;SDS011;50724;42.376;23.768;2023-08-07T01:06:27;2.78;;;1.50;;
64401;SDS011;50724;42.376;23.768;2023-08-07T01:09:27;2.75;;;1.50;;
64401;SDS011;50724;42.376;23.768;2023-08-07T01:12:33;3.67;;;1.50;;
64401;SDS011;50724;42.376;23.768;2023-08-07T01:15:39;2.30;;;1.40;;
64401;SDS011;50724;42.376;23.768;2023-08-07T01:18:40;3.55;;;1.70;;
64401;SDS011;50724;42.376;23.768;2023-08-07T01:24:51;3.30;;;1.67;;
64401;SDS011;50724;42.376;23.768;2023-08-07T01:31:12;2.97;;;1.23;;
64401;SDS011;50724;42.376;23.768;2023-08-07T01:34:16;3.53;;;1.63;;
64401;SDS011;50724;42.376;23.768;2023-08-07T01:37:19;2.90;;;1.60;;
64401;SDS011;50724;42.376;23.768;2023-08-07T01:40:22;7.03;;;1.90;;
64401;SDS011;50724;42.376;23.768;2023-08-07T01:43:23;2.83;;;1.60;;
64401;SDS011;50724;42.376;23.768;2023-08-07T01:46:24;3.13;;;1.60;;
64401;SDS011;50724;42.376;23.768;2023-08-07T01:49:25;3.45;;;1.70;;
64401;SDS011;50724;42.376;23.768;2023-08-07T01:52:25;3.20;;;1.60;;
64401;SDS011;50724;42.376;23.768;2023-08-07T01:55:25;2.90;;;1.73;;
64401;SDS011;50724;42.376;23.768;2023-08-07T01:58:26;3.13;;;1.55;;
64401;SDS011;50724;42.376;23.768;2023-08-07T02:01:26;3.05;;;1.67;;
64401;SDS011;50724;42.376;23.768;2023-08-07T02:04:27;3.03;;;1.57;;
64401;SDS011;50724;42.376;23.768;2023-08-07T02:07:27;2.92;;;1.73;;
64401;SDS011;50724;42.376;23.768;2023-08-07T02:10:28;3.45;;;1.60;;
64401;SDS011;50724;42.376;23.768;2023-08-07T02:13:28;4.20;;;1.73;;
64401;SDS011;50724;42.376;23.768;2023-08-07T02:16:28;4.10;;;1.88;;
64401;SDS011;50724;42.376;23.768;2023-08-07T02:19:29;4.38;;;1.80;;
64401;SDS011;50724;42.376;23.768;2023-08-07T02:22:30;4.43;;;1.80;;
64401;SDS011;50724;42.376;23.768;2023-08-07T02:25:31;4.40;;;1.77;;
64401;SDS011;50724;42.376;23.768;2023-08-07T02:28:31;3.60;;;1.95;;
64401;SDS011;50724;42.376;23.768;2023-08-07T02:31:31;4.23;;;2.03;;
64401;SDS011;50724;42.376;23.768;2023-08-07T02:34:32;4.80;;;2.17;;
64401;SDS011;50724;42.376;23.768;2023-08-07T02:37:32;5.88;;;1.70;;
64401;SDS011;50724;42.376;23.768;2023-08-07T02:40:33;5.20;;;2.45;;
64401;SDS011;50724;42.376;23.768;2023-08-07T02:43:33;4.18;;;2.28;;
64401;SDS011;50724;42.376;23.768;2023-08-07T02:46:34;3.67;;;1.95;;
64401;SDS011;50724;42.376;23.768;2023-08-07T02:49:36;3.75;;;2.20;;
64401;SDS011;50724;42.376;23.768;2023-08-07T02:52:36;5.00;;;2.60;;
64401;SDS011;50724;42.376;23.768;2023-08-07T02:55:45;5.30;;;2.70;;
64401;SDS011;50724;42.376;23.768;2023-08-07T02:58:45;5.13;;;2.90;;
64401;SDS011;50724;42.376;23.768;2023-08-07T03:01:46;4.13;;;2.50;;
64401;SDS011;50724;42.376;23.768;2023-08-07T03:04:46;4.88;;;3.00;;
64401;SDS011;50724;42.376;23.768;2023-08-07T03:07:55;4.22;;;2.40;;
64401;SDS011;50724;42.376;23.768;2023-08-07T03:10:56;5.07;;;2.90;;
64401;SDS011;50724;42.376;23.768;2023-08-07T03:13:57;4.30;;;2.35;;
64401;SDS011;50724;42.376;23.768;2023-08-07T03:16:58;4.57;;;2.63;;
64401;SDS011;50724;42.376;23.768;2023-08-07T03:19:58;4.40;;;2.50;;
64401;SDS011;50724;42.376;23.768;2023-08-07T03:22:58;3.83;;;2.13;;
64401;SDS011;50724;42.376;23.768;2023-08-07T03:26:05;4.37;;;2.60;;
64401;SDS011;50724;42.376;23.768;2023-08-07T03:29:10;4.18;;;2.22;;
64401;SDS011;50724;42.376;23.768;2023-08-07T03:32:11;4.38;;;2.88;;
64401;SDS011;50724;42.376;23.768;2023-08-07T03:35:11;4.53;;;2.90;;
64401;SDS011;50724;42.376;23.768;2023-08-07T03:38:12;4.45;;;2.83;;
64401;SDS011;50724;42.376;23.768;2023-08-07T03:41:12;4.60;;;2.88;;
64401;SDS011;50724;42.376;23.768;2023-08-07T03:44:12;4.27;;;2.27;;
64401;SDS011;50724;42.376;23.768;2023-08-07T03:47:13;5.57;;;2.67;;
64401;SDS011;50724;42.376;23.768;2023-08-07T03:50:14;4.60;;;2.60;;
64401;SDS011;50724;42.376;23.768;2023-08-07T03:53:14;3.22;;;1.95;;
64401;SDS011;50724;42.376;23.768;2023-08-07T03:56:15;4.53;;;2.60;;
64401;SDS011;50724;42.376;23.768;2023-08-07T03:59:15;4.30;;;2.63;;
64401;SDS011;50724;42.376;23.768;2023-08-07T04:02:15;5.67;;;2.67;;
64401;SDS011;50724;42.376;23.768;2023-08-07T04:05:16;3.92;;;2.38;;
64401;SDS011;50724;42.376;23.768;2023-08-07T04:08:16;5.03;;;2.70;;
64401;SDS011;50724;42.376;23.768;2023-08-07T04:11:17;5.63;;;2.60;;
64401;SDS011;50724;42.376;23.768;2023-08-07T04:14:17;4.28;;;2.45;;
64401;SDS011;50724;42.376;23.768;2023-08-07T04:17:17;4.17;;;2.20;;
64401;SDS011;50724;42.376;23.768;2023-08-07T04:20:18;4.23;;;2.47;;
64401;SDS011;50724;42.376;23.768;2023-08-07T04:23:20;4.03;;;2.50;;
64401;SDS011;50724;42.376;23.768;2023-08-07T04:26:21;3.83;;;2.17;;
64401;SDS011;50724;42.376;23.768;2023-08-07T04:29:23;5.18;;;3.17;;
64401;SDS011;50724;42.376;23.768;2023-08-07T04:32:24;6.60;;;2.40;;
64401;SDS011;50724;42.376;23.768;2023-08-07T04:35:24;4.20;;;2.50;;
64401;SDS011;50724;42.376;23.768;2023-08-07T04:38:25;4.40;;;2.70;;
64401;SDS011;50724;42.376;23.768;2023-08-07T04:41:26;3.97;;;2.28;;
64401;SDS011;50724;42.376;23.768;2023-08-07T04:44:27;4.82;;;2.28;;
64401;SDS011;50724;42.376;23.768;2023-08-07T04:47:28;3.88;;;2.10;;
64401;SDS011;50724;42.376;23.768;2023-08-07T04:50:29;4.20;;;2.20;;
64401;SDS011;50724;42.376;23.768;2023-08-07T04:53:29;3.50;;;2.10;;
64401;SDS011;50724;42.376;23.768;2023-08-07T04:56:29;3.47;;;2.10;;
64401;SDS011;50724;42.376;23.768;2023-08-07T04:59:31;3.53;;;2.13;;
64401;SDS011;50724;42.376;23.768;2023-08-07T05:02:31;5.28;;;2.05;;
64401;SDS011;50724;42.376;23.768;2023-08-07T05:05:32;4.18;;;2.30;;
64401;SDS011;50724;42.376;23.768;2023-08-07T05:08:32;2.80;;;1.90;;
64401;SDS011;50724;42.376;23.768;2023-08-07T05:11:33;2.90;;;1.80;;
64401;SDS011;50724;42.376;23.768;2023-08-07T05:14:33;3.00;;;1.88;;
64401;SDS011;50724;42.376;23.768;2023-08-07T05:17:34;3.23;;;2.00;;
64401;SDS011;50724;42.376;23.768;2023-08-07T05:20:34;2.70;;;1.75;;
64401;SDS011;50724;42.376;23.768;2023-08-07T05:23:35;3.17;;;1.95;;
64401;SDS011;50724;42.376;23.768;2023-08-07T05:26:35;2.90;;;1.80;;
64401;SDS011;50724;42.376;23.768;2023-08-07T05:29:35;3.60;;;2.00;;
64401;SDS011;50724;42.376;23.768;2023-08-07T05:32:43;2.80;;;1.80;;
64401;SDS011;50724;42.376;23.768;2023-08-07T05:35:43;3.72;;;1.92;;
64401;SDS011;50724;42.376;23.768;2023-08-07T05:38:44;3.13;;;1.80;;
64401;SDS011;50724;42.376;23.768;2023-08-07T05:41:44;3.80;;;1.90;;
64401;SDS011;50724;42.376;23.768;2023-08-07T05:44:45;3.27;;;1.80;;
64401;SDS011;50724;42.376;23.768;2023-08-07T05:47:46;3.15;;;1.85;;
64401;SDS011;50724;42.376;23.768;2023-08-07T05:50:46;3.03;;;1.83;;
64401;SDS011;50724;42.376;23.768;2023-08-07T05:53:47;2.53;;;1.48;;
64401;SDS011;50724;42.376;23.768;2023-08-07T05:56:47;4.33;;;1.73;;
64401;SDS011;50724;42.376;23.768;2023-08-07T05:59:48;3.08;;;1.60;;
64401;SDS011;50724;42.376;23.768;2023-08-07T06:02:51;4.25;;;2.20;;
64401;SDS011;50724;42.376;23.768;2023-08-07T06:05:51;2.73;;;1.63;;
64401;SDS011;50724;42.376;23.768;2023-08-07T06:08:51;2.47;;;1.65;;
64401;SDS011;50724;42.376;23.768;2023-08-07T06:11:52;3.83;;;2.25;;
64401;SDS011;50724;42.376;23.768;2023-08-07T06:14:53;3.05;;;1.60;;
64401;SDS011;50724;42.376;23.768;2023-08-07T06:17:53;4.30;;;1.77;;
64401;SDS011;50724;42.376;23.768;2023-08-07T06:20:54;2.95;;;1.55;;
64401;SDS011;50724;42.376;23.768;2023-08-07T06:23:54;2.60;;;1.60;;
64401;SDS011;50724;42.376;23.768;2023-08-07T06:26:55;3.28;;;1.70;;
64401;SDS011;50724;42.376;23.768;2023-08-07T06:29:56;4.45;;;1.75;;
64401;SDS011;50724;42.376;23.768;2023-08-07T06:32:56;2.97;;;1.60;;
64401;SDS011;50724;42.376;23.768;2023-08-07T06:35:57;2.73;;;1.30;;
64401;SDS011;50724;42.376;23.768;2023-08-07T06:38:58;3.42;;;1.70;;
64401;SDS011;50724;42.376;23.768;2023-08-07T06:41:58;2.97;;;1.77;;
64401;SDS011;50724;42.376;23.768;2023-08-07T06:45:00;2.95;;;1.60;;
64401;SDS011;50724;42.376;23.768;2023-08-07T06:48:01;3.03;;;1.77;;
64401;SDS011;50724;42.376;23.768;2023-08-07T06:51:01;3.45;;;1.70;;
64401;SDS011;50724;42.376;23.768;2023-08-07T06:54:02;2.85;;;1.60;;
64401;SDS011;50724;42.376;23.768;2023-08-07T06:57:03;3.30;;;1.80;;
64401;SDS011;50724;42.376;23.768;2023-08-07T07:00:04;2.97;;;1.70;;
64401;SDS011;50724;42.376;23.768;2023-08-07T07:03:05;4.38;;;1.83;;
64401;SDS011;50724;42.376;23.768;2023-08-07T07:06:07;2.88;;;1.70;;
64401;SDS011;50724;42.376;23.768;2023-08-07T07:09:08;2.10;;;1.50;;
64401;SDS011;50724;42.376;23.768;2023-08-07T07:12:08;3.75;;;1.98;;
64401;SDS011;50724;42.376;23.768;2023-08-07T07:15:09;3.70;;;1.50;;
64401;SDS011;50724;42.376;23.768;2023-08-07T07:18:10;2.85;;;1.73;;
64401;SDS011;50724;42.376;23.768;2023-08-07T07:21:10;3.15;;;1.60;;
64401;SDS011;50724;42.376;23.768;2023-08-07T07:24:11;3.03;;;1.77;;
64401;SDS011;50724;42.376;23.768;2023-08-07T07:27:11;2.25;;;1.48;;
64401;SDS011;50724;42.376;23.768;2023-08-07T07:30:12;3.55;;;1.70;;
64401;SDS011;50724;42.376;23.768;2023-08-07T07:33:16;2.65;;;1.63;;
64401;SDS011;50724;42.376;23.768;2023-08-07T07:36:16;2.28;;;1.48;;
64401;SDS011;50724;42.376;23.768;2023-08-07T07:39:18;2.75;;;1.60;;
64401;SDS011;50724;42.376;23.768;2023-08-07T07:42:19;2.45;;;1.58;;
64401;SDS011;50724;42.376;23.768;2023-08-07T07:45:19;2.65;;;1.30;;
64401;SDS011;50724;42.376;23.768;2023-08-07T07:48:20;3.67;;;1.52;;
64401;SDS011;50724;42.376;23.768;2023-08-07T07:51:26;2.45;;;1.30;;
64401;SDS011;50724;42.376;23.768;2023-08-07T07:54:27;2.33;;;1.42;;
64401;SDS011;50724;42.376;23.768;2023-08-07T07:57:28;2.92;;;1.35;;
64401;SDS011;50724;42.376;23.768;2023-08-07T08:00:29;2.22;;;1.40;;
64401;SDS011;50724;42.376;23.768;2023-08-07T08:03:29;2.43;;;1.30;;
64401;SDS011;50724;42.376;23.768;2023-08-07T08:06:30;2.77;;;1.60;;
64401;SDS011;50724;42.376;23.768;2023-08-07T08:09:30;3.13;;;1.20;;
64401;SDS011;50724;42.376;23.768;2023-08-07T08:12:31;2.88;;;1.58;;
64401;SDS011;50724;42.376;23.768;2023-08-07T08:15:40;1.90;;;1.23;;
64401;SDS011;50724;42.376;23.768;2023-08-07T08:18:40;2.50;;;1.40;;
64401;SDS011;50724;42.376;23.768;2023-08-07T08:21:41;3.30;;;1.58;;
64401;SDS011;50724;42.376;23.768;2023-08-07T08:24:43;4.07;;;1.70;;
64401;SDS011;50724;42.376;23.768;2023-08-07T08:27:43;2.92;;;1.48;;
64401;SDS011;50724;42.376;23.768;2023-08-07T08:30:44;1.95;;;1.23;;
64401;SDS011;50724;42.376;23.768;2023-08-07T08:33:45;1.95;;;1.30;;
64401;SDS011;50724;42.376;23.768;2023-08-07T08:36:45;2.65;;;1.40;;
64401;SDS011;50724;42.376;23.768;2023-08-07T08:39:46;5.78;;;1.50;;
64401;SDS011;50724;42.376;23.768;2023-08-07T08:42:46;2.45;;;1.50;;
64401;SDS011;50724;42.376;23.768;2023-08-07T08:45:51;1.77;;;1.10;;
64401;SDS011;50724;42.376;23.768;2023-08-07T08:48:54;2.35;;;1.30;;
64401;SDS011;50724;42.376;23.768;2023-08-07T08:51:58;3.08;;;1.30;;
64401;SDS011;50724;42.376;23.768;2023-08-07T08:54:59;3.28;;;1.42;;
64401;SDS011;50724;42.376;23.768;2023-08-07T09:01:02;1.98;;;1.23;;
64401;SDS011;50724;42.376;23.768;2023-08-07T09:04:11;2.88;;;1.50;;
64401;SDS011;50724;42.376;23.768;2023-08-07T09:07:13;2.22;;;1.50;;
64401;SDS011;50724;42.376;23.768;2023-08-07T09:10:15;3.30;;;1.75;;
64401;SDS011;50724;42.376;23.768;2023-08-07T09:13:16;4.15;;;1.75;;
64401;SDS011;50724;42.376;23.768;2023-08-07T09:16:21;2.85;;;1.60;;
64401;SDS011;50724;42.376;23.768;2023-08-07T09:19:25;2.55;;;1.40;;
64401;SDS011;50724;42.376;23.768;2023-08-07T09:22:26;2.70;;;1.60;;
64401;SDS011;50724;42.376;23.768;2023-08-07T09:25:29;2.63;;;1.60;;
64401;SDS011;50724;42.376;23.768;2023-08-07T09:28:31;3.83;;;1.30;;
64401;SDS011;50724;42.376;23.768;2023-08-07T09:31:32;2.90;;;1.70;;
64401;SDS011;50724;42.376;23.768;2023-08-07T09:34:36;3.08;;;1.60;;
64401;SDS011;50724;42.376;23.768;2023-08-07T09:37:39;3.35;;;1.70;;
64401;SDS011;50724;42.376;23.768;2023-08-07T09:40:43;4.03;;;1.70;;
64401;SDS011;50724;42.376;23.768;2023-08-07T09:43:44;2.97;;;1.60;;
64401;SDS011;50724;42.376;23.768;2023-08-07T09:46:44;3.65;;;1.75;;
64401;SDS011;50724;42.376;23.768;2023-08-07T09:49:45;3.30;;;1.60;;
64401;SDS011;50724;42.376;23.768;2023-08-07T09:52:47;2.50;;;1.40;;
64401;SDS011;50724;42.376;23.768;2023-08-07T09:55:48;3.30;;;1.63;;
64401;SDS011;50724;42.376;23.768;2023-08-07T09:58:54;2.58;;;1.52;;
64401;SDS011;50724;42.376;23.768;2023-08-07T10:01:55;2.53;;;1.60;;
64401;SDS011;50724;42.376;23.768;2023-08-07T10:04:56;4.03;;;1.80;;
64401;SDS011;50724;42.376;23.768;2023-08-07T10:07:58;2.55;;;1.42;;
64401;SDS011;50724;42.376;23.768;2023-08-07T10:10:59;2.30;;;1.40;;
64401;SDS011;50724;42.376;23.768;2023-08-07T10:14:00;2.13;;;1.40;;
64401;SDS011;50724;42.376;23.768;2023-08-07T10:17:01;3.20;;;1.30;;
64401;SDS011;50724;42.376;23.768;2023-08-07T10:20:02;2.25;;;1.42;;
64401;SDS011;50724;42.376;23.768;2023-08-07T10:23:07;2.63;;;1.55;;
64401;SDS011;50724;42.376;23.768;2023-08-07T10:26:08;2.13;;;1.30;;
64401;SDS011;50724;42.376;23.768;2023-08-07T10:29:12;2.75;;;1.45;;
64401;SDS011;50724;42.376;23.768;2023-08-07T10:32:17;3.17;;;1.40;;
64401;SDS011;50724;42.376;23.768;2023-08-07T10:35:28;6.25;;;1.58;;
64401;SDS011;50724;42.376;23.768;2023-08-07T10:38:30;3.25;;;1.65;;
64401;SDS011;50724;42.376;23.768;2023-08-07T10:41:37;2.55;;;1.35;;
64401;SDS011;50724;42.376;23.768;2023-08-07T10:44:44;4.57;;;1.70;;
64401;SDS011;50724;42.376;23.768;2023-08-07T10:51:04;3.90;;;1.50;;
64401;SDS011;50724;42.376;23.768;2023-08-07T10:54:05;2.47;;;1.50;;
64401;SDS011;50724;42.376;23.768;2023-08-07T10:57:05;3.80;;;1.52;;
64401;SDS011;50724;42.376;23.768;2023-08-07T11:00:21;6.65;;;1.60;;
64401;SDS011;50724;42.376;23.768;2023-08-07T11:06:32;3.85;;;1.63;;
64401;SDS011;50724;42.376;23.768;2023-08-07T11:09:33;3.97;;;1.48;;
64401;SDS011;50724;42.376;23.768;2023-08-07T11:12:34;3.55;;;1.83;;
64401;SDS011;50724;42.376;23.768;2023-08-07T11:15:35;3.03;;;1.48;;
64401;SDS011;50724;42.376;23.768;2023-08-07T11:18:36;2.17;;;1.45;;
64401;SDS011;50724;42.376;23.768;2023-08-07T11:21:41;2.67;;;1.60;;
64401;SDS011;50724;42.376;23.768;2023-08-07T11:24:42;2.33;;;1.40;;
64401;SDS011;50724;42.376;23.768;2023-08-07T11:27:43;3.53;;;1.65;;
64401;SDS011;50724;42.376;23.768;2023-08-07T11:30:44;4.75;;;1.60;;
64401;SDS011;50724;42.376;23.768;2023-08-07T11:33:45;2.78;;;1.55;;
64401;SDS011;50724;42.376;23.768;2023-08-07T11:36:46;2.10;;;1.40;;
64401;SDS011;50724;42.376;23.768;2023-08-07T11:39:47;2.78;;;1.50;;
64401;SDS011;50724;42.376;23.768;2023-08-07T11:42:48;3.15;;;1.60;;
64401;SDS011;50724;42.376;23.768;2023-08-07T11:45:49;2.97;;;1.60;;
64401;SDS011;50724;42.376;23.768;2023-08-07T11:48:50;2.95;;;1.77;;
64401;SDS011;50724;42.376;23.768;2023-08-07T11:51:52;3.10;;;1.40;;
64401;SDS011;50724;42.376;23.768;2023-08-07T11:54:54;2.60;;;1.50;;
64401;SDS011;50724;42.376;23.768;2023-08-07T11:57:55;2.75;;;1.45;;
64401;SDS011;50724;42.376;23.768;2023-08-07T12:00:55;2.60;;;1.55;;
64401;SDS011;50724;42.376;23.768;2023-08-07T12:04:17;1.83;;;1.20;;
64401;SDS011;50724;42.376;23.768;2023-08-07T12:07:17;3.08;;;1.65;;
64401;SDS011;50724;42.376;23.768;2023-08-07T12:10:19;2.78;;;1.58;;
64401;SDS011;50724;42.376;23.768;2023-08-07T12:13:20;2.33;;;1.30;;
64401;SDS011;50724;42.376;23.768;2023-08-07T12:16:25;2.90;;;1.58;;
64401;SDS011;50724;42.376;23.768;2023-08-07T12:19:34;2.17;;;1.38;;
64401;SDS011;50724;42.376;23.768;2023-08-07T12:22:36;2.33;;;1.52;;
64401;SDS011;50724;42.376;23.768;2023-08-07T12:25:37;3.50;;;1.50;;
64401;SDS011;50724;42.376;23.768;2023-08-07T12:28:37;2.63;;;1.50;;
64401;SDS011;50724;42.376;23.768;2023-08-07T12:31:38;3.03;;;1.60;;
64401;SDS011;50724;42.376;23.768;2023-08-07T12:34:38;3.17;;;1.53;;
64401;SDS011;50724;42.376;23.768;2023-08-07T12:37:39;4.45;;;1.90;;
64401;SDS011;50724;42.376;23.768;2023-08-07T12:40:39;2.90;;;1.90;;
64401;SDS011;50724;42.376;23.768;2023-08-07T12:43:40;4.45;;;1.70;;
64401;SDS011;50724;42.376;23.768;2023-08-07T12:46:40;3.60;;;1.70;;
64401;SDS011;50724;42.376;23.768;2023-08-07T12:49:40;2.23;;;1.50;;
64401;SDS011;50724;42.376;23.768;2023-08-07T12:52:41;3.10;;;1.67;;
64401;SDS011;50724;42.376;23.768;2023-08-07T12:55:41;4.17;;;1.73;;
64401;SDS011;50724;42.376;23.768;2023-08-07T12:58:42;5.38;;;1.70;;
64401;SDS011;50724;42.376;23.768;2023-08-07T13:01:42;3.20;;;1.60;;
64401;SDS011;50724;42.376;23.768;2023-08-07T13:04:43;3.10;;;1.90;;
64401;SDS011;50724;42.376;23.768;2023-08-07T13:07:44;3.55;;;1.80;;
64401;SDS011;50724;42.376;23.768;2023-08-07T13:10:45;5.65;;;1.70;;
64401;SDS011;50724;42.376;23.768;2023-08-07T13:13:46;3.60;;;1.70;;
64401;SDS011;50724;42.376;23.768;2023-08-07T13:16:47;3.40;;;1.77;;
64401;SDS011;50724;42.376;23.768;2023-08-07T13:19:49;3.25;;;1.55;;
64401;SDS011;50724;42.376;23.768;2023-08-07T13:22:49;3.17;;;1.67;;
64401;SDS011;50724;42.376;23.768;2023-08-07T13:25:50;3.07;;;1.80;;
64401;SDS011;50724;42.376;23.768;2023-08-07T13:28:50;3.20;;;1.80;;
64401;SDS011;50724;42.376;23.768;2023-08-07T13:31:51;2.80;;;1.60;;
64401;SDS011;50724;42.376;23.768;2023-08-07T13:34:52;2.65;;;1.60;;
64401;SDS011;50724;42.376;23.768;2023-08-07T13:37:52;3.72;;;1.70;;
64401;SDS011;50724;42.376;23.768;2023-08-07T13:40:53;3.60;;;1.50;;
64401;SDS011;50724;42.376;23.768;2023-08-07T13:43:53;3.10;;;1.80;;
64401;SDS011;50724;42.376;23.768;2023-08-07T13:46:54;5.13;;;2.08;;
64401;SDS011;50724;42.376;23.768;2023-08-07T13:49:55;3.75;;;1.90;;
64401;SDS011;50724;42.376;23.768;2023-08-07T13:52:56;3.65;;;1.88;;
64401;SDS011;50724;42.376;23.768;2023-08-07T13:55:56;3.20;;;1.90;;
64401;SDS011;50724;42.376;23.768;2023-08-07T13:58:57;7.13;;;1.77;;
64401;SDS011;50724;42.376;23.768;2023-08-07T14:01:57;4.43;;;1.65;;
64401;SDS011;50724;42.376;23.768;2023-08-07T14:05:06;4.90;;;1.70;;
64401;SDS011;50724;42.376;23.768;2023-08-07T14:08:06;3.70;;;1.70;;
64401;SDS011;50724;42.376;23.768;2023-08-07T14:11:07;2.40;;;1.60;;
64401;SDS011;50724;42.376;23.768;2023-08-07T14:14:07;4.13;;;1.92;;
64401;SDS011;50724;42.376;23.768;2023-08-07T14:17:08;2.93;;;1.60;;
64401;SDS011;50724;42.376;23.768;2023-08-07T14:20:08;3.60;;;1.67;;
64401;SDS011;50724;42.376;23.768;2023-08-07T14:23:10;3.95;;;1.88;;
64401;SDS011;50724;42.376;23.768;2023-08-07T14:26:11;4.37;;;1.60;;
64401;SDS011;50724;42.376;23.768;2023-08-07T14:29:13;3.63;;;1.50;;
64401;SDS011;50724;42.376;23.768;2023-08-07T14:32:13;3.03;;;1.70;;
64401;SDS011;50724;42.376;23.768;2023-08-07T14:35:13;2.63;;;1.60;;
64401;SDS011;50724;42.376;23.768;2023-08-07T14:38:14;4.82;;;1.92;;
64401;SDS011;50724;42.376;23.768;2023-08-07T14:41:14;3.27;;;1.77;;
64401;SDS011;50724;42.376;23.768;2023-08-07T14:44:15;3.20;;;1.70;;
64401;SDS011;50724;42.376;23.768;2023-08-07T14:47:15;3.28;;;1.77;;
64401;SDS011;50724;42.376;23.768;2023-08-07T14:50:16;2.80;;;1.70;;
64401;SDS011;50724;42.376;23.768;2023-08-07T14:53:16;3.45;;;1.83;;
64401;SDS011;50724;42.376;23.768;2023-08-07T14:56:17;3.25;;;1.77;;
64401;SDS011;50724;42.376;23.768;2023-08-07T14:59:18;3.35;;;1.77;;
64401;SDS011;50724;42.376;23.768;2023-08-07T15:02:18;3.70;;;1.80;;
64401;SDS011;50724;42.376;23.768;2023-08-07T15:05:18;2.93;;;1.67;;
64401;SDS011;50724;42.376;23.768;2023-08-07T15:08:19;4.05;;;1.90;;
64401;SDS011;50724;42.376;23.768;2023-08-07T15:11:19;2.97;;;1.70;;
64401;SDS011;50724;42.376;23.768;2023-08-07T15:14:20;5.13;;;1.90;;
64401;SDS011;50724;42.376;23.768;2023-08-07T15:17:29;3.50;;;1.90;;
64401;SDS011;50724;42.376;23.768;2023-08-07T15:20:30;2.77;;;1.60;;
64401;SDS011;50724;42.376;23.768;2023-08-07T15:23:47;3.80;;;1.75;;
64401;SDS011;50724;42.376;23.768;2023-08-07T15:26:48;2.90;;;1.80;;
64401;SDS011;50724;42.376;23.768;2023-08-07T15:29:48;3.00;;;1.55;;
64401;SDS011;50724;42.376;23.768;2023-08-07T15:32:49;4.60;;;2.20;;
64401;SDS011;50724;42.376;23.768;2023-08-07T15:35:49;4.20;;;2.13;;
64401;SDS011;50724;42.376;23.768;2023-08-07T15:38:53;4.47;;;2.05;;
64401;SDS011;50724;42.376;23.768;2023-08-07T15:41:53;4.70;;;1.65;;
64401;SDS011;50724;42.376;23.768;2023-08-07T15:44:53;2.97;;;1.50;;
64401;SDS011;50724;42.376;23.768;2023-08-07T15:47:54;4.47;;;1.80;;
64401;SDS011;50724;42.376;23.768;2023-08-07T15:50:54;2.63;;;1.50;;
64401;SDS011;50724;42.376;23.768;2023-08-07T15:53:55;4.18;;;1.80;;
64401;SDS011;50724;42.376;23.768;2023-08-07T15:56:57;2.72;;;1.60;;
64401;SDS011;50724;42.376;23.768;2023-08-07T15:59:58;2.72;;;1.60;;
64401;SDS011;50724;42.376;23.768;2023-08-07T16:02:59;3.25;;;1.60;;
64401;SDS011;50724;42.376;23.768;2023-08-07T16:06:06;3.00;;;1.70;;
64401;SDS011;50724;42.376;23.768;2023-08-07T16:09:06;3.83;;;1.70;;
64401;SDS011;50724;42.376;23.768;2023-08-07T16:12:07;3.50;;;2.00;;
64401;SDS011;50724;42.376;23.768;2023-08-07T16:15:07;4.93;;;1.90;;
64401;SDS011;50724;42.376;23.768;2023-08-07T16:18:08;3.90;;;2.05;;
64401;SDS011;50724;42.376;23.768;2023-08-07T16:21:08;3.17;;;1.70;;
64401;SDS011;50724;42.376;23.768;2023-08-07T16:24:09;3.47;;;1.80;;
64401;SDS011;50724;42.376;23.768;2023-08-07T16:27:09;3.40;;;1.50;;
64401;SDS011;50724;42.376;23.768;2023-08-07T16:30:10;5.47;;;1.70;;
64401;SDS011;50724;42.376;23.768;2023-08-07T16:33:10;3.03;;;1.75;;
64401;SDS011;50724;42.376;23.768;2023-08-07T16:36:11;3.30;;;1.50;;
64401;SDS011;50724;42.376;23.768;2023-08-07T16:39:11;3.70;;;1.63;;
64401;SDS011;50724;42.376;23.768;2023-08-07T16:42:12;3.23;;;1.70;;
64401;SDS011;50724;42.376;23.768;2023-08-07T16:45:12;3.07;;;1.90;;
64401;SDS011;50724;42.376;23.768;2023-08-07T16:48:13;2.92;;;1.92;;
64401;SDS011;50724;42.376;23.768;2023-08-07T16:51:13;3.15;;;1.52;;
64401;SDS011;50724;42.376;23.768;2023-08-07T16:54:14;2.78;;;1.50;;
64401;SDS011;50724;42.376;23.768;2023-08-07T16:57:14;3.20;;;1.50;;
64401;SDS011;50724;42.376;23.768;2023-08-07T17:00:15;2.70;;;1.70;;
64401;SDS011;50724;42.376;23.768;2023-08-07T17:03:16;2.85;;;1.65;;
64401;SDS011;50724;42.376;23.768;2023-08-07T17:06:16;3.50;;;1.50;;
64401;SDS011;50724;42.376;23.768;2023-08-07T17:09:17;3.42;;;1.60;;
64401;SDS011;50724;42.376;23.768;2023-08-07T17:12:19;3.38;;;1.73;;
64401;SDS011;50724;42.376;23.768;2023-08-07T17:15:19;3.40;;;1.85;;
64401;SDS011;50724;42.376;23.768;2023-08-07T17:18:20;4.05;;;1.77;;
64401;SDS011;50724;42.376;23.768;2023-08-07T17:21:20;3.53;;;1.70;;
64401;SDS011;50724;42.376;23.768;2023-08-07T17:24:21;2.33;;;1.58;;
64401;SDS011;50724;42.376;23.768;2023-08-07T17:27:22;4.45;;;1.90;;
64401;SDS011;50724;42.376;23.768;2023-08-07T17:30:22;5.43;;;1.80;;
64401;SDS011;50724;42.376;23.768;2023-08-07T17:33:23;2.90;;;1.63;;
64401;SDS011;50724;42.376;23.768;2023-08-07T17:36:23;3.83;;;1.85;;
64401;SDS011;50724;42.376;23.768;2023-08-07T17:39:25;3.33;;;1.77;;
64401;SDS011;50724;42.376;23.768;2023-08-07T17:42:25;3.20;;;1.70;;
64401;SDS011;50724;42.376;23.768;2023-08-07T17:45:25;3.27;;;2.10;;
64401;SDS011;50724;42.376;23.768;2023-08-07T17:48:27;3.35;;;1.50;;
64401;SDS011;50724;42.376;23.768;2023-08-07T17:51:29;3.38;;;1.80;;
64401;SDS011;50724;42.376;23.768;2023-08-07T17:54:31;4.03;;;1.70;;
64401;SDS011;50724;42.376;23.768;2023-08-07T17:57:31;3.28;;;1.50;;
64401;SDS011;50724;42.376;23.768;2023-08-07T18:00:32;3.70;;;1.83;;
64401;SDS011;50724;42.376;23.768;2023-08-07T18:03:32;4.13;;;1.60;;
64401;SDS011;50724;42.376;23.768;2023-08-07T18:06:33;2.90;;;1.57;;
64401;SDS011;50724;42.376;23.768;2023-08-07T18:09:33;2.90;;;1.50;;